TF2 weather

CLOSED Pointe-au-Chêne Water Aerodrome
Pointe-au-Chêne, Quebec, Canada

Public forecast

Using degrees Celsius for public forecast. Weather courtesy of forecast.io.

Closest aviation weather report (METAR) to Pointe-au-Chêne Water Aerodrome

Closest report is Montreal International (Mirabel) Airport, 29.9 nm (55.5 km) E. Retrieved 2020/01/25 17:00 UTC (3 minutes ago):

CYMX 251700Z 06008G15KT 20SM FEW190 OVC230 M02/M05 A3010 WS RWYAC RMK AC2CI5 SLP198

Closest aviation forecast (TAF) to Pointe-au-Chêne Water Aerodrome

Closest forecast is Montreal International (Mirabel) Airport, 29.9 nm (55.5 km) E. Retrieved 2020/01/25 12:45 UTC (4 hours ago):

TAF TAF CYMX 251143Z 2512/2612 06006KT P6SM SCT006 OVC120 FM251600 06010G20KT P6SM FEW030 OVC120 FM252000 05010KT 5SM -SHSN OVC050 PROB30 2520/2522 5SM -FZRA BR FM252200 05010KT 1/2SM SN VV004 PROB30 2522/2601 2SM -FZRA BR OVC006 FM260700 05008KT 3SM -SN BR OVC005 FM261000 05004KT 1SM -SN BR OVC003 RMK NXT FCST BY 251800Z